Atlanta, GA (30316)

4:08 AM EDT on July 27, 2016 (GMT -0400)
Gresham Park | | Change Station

Elev 1004 ft 33.72 °N, 84.32 °W | Updated 9 seconds ago

Clear
Clear
75.0 °F
Feels Like 73 °F
N
0.0
Wind Variable Wind from ESE
Gusts 0.0 mph

Today
High -- | Low -- °F
--% Chance of Precip.
Yesterday
High -- | Low -- °F
Precip. -- in
Pressure 30.00 in
Visibility 10.0 miles
Clouds Clear
Heat Index 73 °F
Dew Point 73 °F
Humidity 94%
Rainfall 0.00 in
Snow Depth Not available.
6:46 AM 8:41 PM
Last Quarter, 46% visible
METAR KATL 270752Z 21005KT 10SM CLR 24/23 A3004 RMK AO2 SLP159 T02440228
Pressure 30.00 in
Visibility 10.0 miles
Clouds Clear
Heat Index 73 °F
Dew Point 73 °F
Humidity 94%
Rainfall 0.00 in
Snow Depth Not available.
6:46 AM 8:41 PM
Last Quarter, 46% visible
METAR KATL 270752Z 21005KT 10SM CLR 24/23 A3004 RMK AO2 SLP159 T02440228

10-Day Weather Forecast

Almanac

Astronomy

Jul. 27, 2016 Rise Set
Actual Time
Civil Twilight
Nautical Twilight
Astronomical Twilight
Moon
Length of Visible Light
Length of Day
Tomorrow will be .
, % of the Moon is Illuminated

Today's Extremes

State Highs State Lows

Community

WunderPhotos

Upload Photos

1,927,818 photos uploaded!

WunderBlog® & News

Nearby

Air Quality

  Air Quality AQ Index Pollutant
Not available.

Snow Depth

Station Depth Elevation

Earthquake Activity

City Distance Mag. Time & Date
Minimum magnitude displayed is 2.5.

Coastal Water Temperatures

Place Temperature

Stations

Nearby Weather Stations

Station Location Temp. Windchill Dew Point Humidity Wind Precip. Elev Updated Type
                   

Watches & Warnings

There are currently no watches in effect.